Ink, Ohio
Current Conditions -  °F | °C
As of 5:53 AM on Friday 28 Nov 2014 (Local Time) from KFDY Reporting Station
Overcast Overcast  
Wind Chill: 25°   Ceiling: 2500
Heat Index: 25°   Visibility: 10mi
Dew Point: 18°   Wind: 3mph
Humidity: 75%   Direction: 330°NNW
Pressure: 30.34"   Gusts: NA
Location:  41.154°N, 83.2212°W
Report Text: KFDY 281053Z AUTO 33003KT 10SM BKN025 OVC033 M04/M08 A3034 RMK AO2 SNB13E24 SLP279 P0000 T10391078
Loading
Personal Weather Stations






























Interactive Weather Map New forecast layout! Learn more

10-Day Weather Forecast

Advertisements
Track Severe Weather on mobile